sensor_id;sensor_type;location;lat;lon;timestamp;temperature;humidity
46117;DHT22;32591;48.102;11.772;2023-03-23T00:02:23;10.50;99.90
46117;DHT22;32591;48.102;11.772;2023-03-23T00:04:50;10.50;99.90
46117;DHT22;32591;48.102;11.772;2023-03-23T00:07:19;10.40;99.90
46117;DHT22;32591;48.102;11.772;2023-03-23T00:09:47;10.40;99.90
46117;DHT22;32591;48.102;11.772;2023-03-23T00:12:19;10.40;99.90
46117;DHT22;32591;48.102;11.772;2023-03-23T00:14:47;10.40;99.90
46117;DHT22;32591;48.102;11.772;2023-03-23T00:17:14;10.40;99.90
46117;DHT22;32591;48.102;11.772;2023-03-23T00:19:43;10.40;99.90
46117;DHT22;32591;48.102;11.772;2023-03-23T00:22:14;10.30;99.90
46117;DHT22;32591;48.102;11.772;2023-03-23T00:24:42;10.30;99.90
46117;DHT22;32591;48.102;11.772;2023-03-23T00:27:10;10.40;99.90
46117;DHT22;32591;48.102;11.772;2023-03-23T00:29:40;10.30;99.90
46117;DHT22;32591;48.102;11.772;2023-03-23T00:32:08;10.30;99.90
46117;DHT22;32591;48.102;11.772;2023-03-23T00:34:38;10.30;99.90
46117;DHT22;32591;48.102;11.772;2023-03-23T00:37:10;10.30;99.90
46117;DHT22;32591;48.102;11.772;2023-03-23T00:39:38;10.30;99.90
46117;DHT22;32591;48.102;11.772;2023-03-23T00:42:12;10.30;99.90
46117;DHT22;32591;48.102;11.772;2023-03-23T00:44:40;10.30;99.90
46117;DHT22;32591;48.102;11.772;2023-03-23T00:47:07;10.30;99.90
46117;DHT22;32591;48.102;11.772;2023-03-23T00:49:36;10.30;99.90
46117;DHT22;32591;48.102;11.772;2023-03-23T00:52:05;10.30;99.90
46117;DHT22;32591;48.102;11.772;2023-03-23T00:54:34;10.30;99.90
46117;DHT22;32591;48.102;11.772;2023-03-23T00:57:03;10.30;99.90
46117;DHT22;32591;48.102;11.772;2023-03-23T00:59:31;10.20;99.90
46117;DHT22;32591;48.102;11.772;2023-03-23T01:01:58;10.20;99.90
46117;DHT22;32591;48.102;11.772;2023-03-23T01:04:25;10.20;99.90
46117;DHT22;32591;48.102;11.772;2023-03-23T01:06:54;10.20;99.90
46117;DHT22;32591;48.102;11.772;2023-03-23T01:09:22;10.20;99.90
46117;DHT22;32591;48.102;11.772;2023-03-23T01:11:51;10.20;99.90
46117;DHT22;32591;48.102;11.772;2023-03-23T01:14:19;10.20;99.90
46117;DHT22;32591;48.102;11.772;2023-03-23T01:16:46;10.20;99.90
46117;DHT22;32591;48.102;11.772;2023-03-23T01:19:14;10.20;99.90
46117;DHT22;32591;48.102;11.772;2023-03-23T01:21:42;10.20;99.90
46117;DHT22;32591;48.102;11.772;2023-03-23T01:24:08;10.20;99.90
46117;DHT22;32591;48.102;11.772;2023-03-23T01:26:35;10.10;99.90
46117;DHT22;32591;48.102;11.772;2023-03-23T01:29:03;10.10;99.90
46117;DHT22;32591;48.102;11.772;2023-03-23T01:31:30;10.10;99.90
46117;DHT22;32591;48.102;11.772;2023-03-23T01:33:57;10.10;99.90
46117;DHT22;32591;48.102;11.772;2023-03-23T01:36:26;10.20;99.90
46117;DHT22;32591;48.102;11.772;2023-03-23T01:38:55;10.10;99.90
46117;DHT22;32591;48.102;11.772;2023-03-23T01:41:23;10.10;99.90
46117;DHT22;32591;48.102;11.772;2023-03-23T01:43:57;10.10;99.90
46117;DHT22;32591;48.102;11.772;2023-03-23T01:46:29;10.10;99.90
46117;DHT22;32591;48.102;11.772;2023-03-23T01:49:01;10.10;99.90
46117;DHT22;32591;48.102;11.772;2023-03-23T01:51:34;10.20;99.90
46117;DHT22;32591;48.102;11.772;2023-03-23T01:54:05;10.20;99.90
46117;DHT22;32591;48.102;11.772;2023-03-23T01:56:38;10.00;99.90
46117;DHT22;32591;48.102;11.772;2023-03-23T01:59:07;10.10;99.90
46117;DHT22;32591;48.102;11.772;2023-03-23T02:01:38;10.10;99.90
46117;DHT22;32591;48.102;11.772;2023-03-23T02:04:12;10.10;99.90
46117;DHT22;32591;48.102;11.772;2023-03-23T02:06:40;10.10;99.90
46117;DHT22;32591;48.102;11.772;2023-03-23T02:09:07;10.10;99.90
46117;DHT22;32591;48.102;11.772;2023-03-23T02:11:34;10.10;99.90
46117;DHT22;32591;48.102;11.772;2023-03-23T02:14:01;10.10;99.90
46117;DHT22;32591;48.102;11.772;2023-03-23T02:16:34;10.10;99.90
46117;DHT22;32591;48.102;11.772;2023-03-23T02:19:22;10.10;99.90
46117;DHT22;32591;48.102;11.772;2023-03-23T02:22:22;10.10;99.90
46117;DHT22;32591;48.102;11.772;2023-03-23T02:28:20;10.10;99.90
46117;DHT22;32591;48.102;11.772;2023-03-23T02:31:09;10.00;99.90
46117;DHT22;32591;48.102;11.772;2023-03-23T02:33:49;10.10;99.90
46117;DHT22;32591;48.102;11.772;2023-03-23T02:36:21;10.00;99.90
46117;DHT22;32591;48.102;11.772;2023-03-23T02:38:57;10.00;99.90
46117;DHT22;32591;48.102;11.772;2023-03-23T02:41:31;9.90;99.90
46117;DHT22;32591;48.102;11.772;2023-03-23T02:44:02;9.90;99.90
46117;DHT22;32591;48.102;11.772;2023-03-23T02:46:31;9.90;99.90
46117;DHT22;32591;48.102;11.772;2023-03-23T02:48:59;10.00;99.90
46117;DHT22;32591;48.102;11.772;2023-03-23T02:51:29;9.90;99.90
46117;DHT22;32591;48.102;11.772;2023-03-23T02:53:58;9.80;99.90
46117;DHT22;32591;48.102;11.772;2023-03-23T02:56:27;9.90;99.90
46117;DHT22;32591;48.102;11.772;2023-03-23T02:58:54;9.80;99.90
46117;DHT22;32591;48.102;11.772;2023-03-23T03:01:55;9.80;99.90
46117;DHT22;32591;48.102;11.772;2023-03-23T03:04:26;9.80;99.90
46117;DHT22;32591;48.102;11.772;2023-03-23T03:07:03;9.80;99.90
46117;DHT22;32591;48.102;11.772;2023-03-23T03:09:42;9.80;99.90
46117;DHT22;32591;48.102;11.772;2023-03-23T03:12:17;9.70;99.90
46117;DHT22;32591;48.102;11.772;2023-03-23T03:14:57;9.70;99.90
46117;DHT22;32591;48.102;11.772;2023-03-23T03:17:36;9.70;99.90
46117;DHT22;32591;48.102;11.772;2023-03-23T03:20:08;9.70;99.90
46117;DHT22;32591;48.102;11.772;2023-03-23T03:22:38;9.60;99.90
46117;DHT22;32591;48.102;11.772;2023-03-23T03:25:08;9.60;99.90
46117;DHT22;32591;48.102;11.772;2023-03-23T03:27:39;9.60;99.90
46117;DHT22;32591;48.102;11.772;2023-03-23T03:30:09;9.50;99.90
46117;DHT22;32591;48.102;11.772;2023-03-23T03:32:44;9.60;99.90
46117;DHT22;32591;48.102;11.772;2023-03-23T03:35:15;9.60;99.90
46117;DHT22;32591;48.102;11.772;2023-03-23T03:37:43;9.60;99.90
46117;DHT22;32591;48.102;11.772;2023-03-23T03:40:14;9.60;99.90
46117;DHT22;32591;48.102;11.772;2023-03-23T03:42:44;9.60;99.90
46117;DHT22;32591;48.102;11.772;2023-03-23T03:45:13;9.60;99.90
46117;DHT22;32591;48.102;11.772;2023-03-23T03:47:41;9.50;99.90
46117;DHT22;32591;48.102;11.772;2023-03-23T03:50:08;9.50;99.90
46117;DHT22;32591;48.102;11.772;2023-03-23T03:52:37;9.50;99.90
46117;DHT22;32591;48.102;11.772;2023-03-23T03:55:06;9.60;99.90
46117;DHT22;32591;48.102;11.772;2023-03-23T03:57:34;9.50;99.90
46117;DHT22;32591;48.102;11.772;2023-03-23T04:00:03;9.50;99.90
46117;DHT22;32591;48.102;11.772;2023-03-23T04:02:44;9.50;99.90
46117;DHT22;32591;48.102;11.772;2023-03-23T04:05:13;9.50;99.90
46117;DHT22;32591;48.102;11.772;2023-03-23T04:07:41;9.50;99.90
46117;DHT22;32591;48.102;11.772;2023-03-23T04:10:10;9.60;99.90
46117;DHT22;32591;48.102;11.772;2023-03-23T04:12:39;9.50;99.90
46117;DHT22;32591;48.102;11.772;2023-03-23T04:15:07;9.40;99.90
46117;DHT22;32591;48.102;11.772;2023-03-23T04:17:35;9.50;99.90
46117;DHT22;32591;48.102;11.772;2023-03-23T04:20:02;9.40;99.90
46117;DHT22;32591;48.102;11.772;2023-03-23T04:22:38;9.40;99.90
46117;DHT22;32591;48.102;11.772;2023-03-23T04:25:11;9.40;99.90
46117;DHT22;32591;48.102;11.772;2023-03-23T04:27:40;9.40;99.90
46117;DHT22;32591;48.102;11.772;2023-03-23T04:30:10;9.40;99.90
46117;DHT22;32591;48.102;11.772;2023-03-23T04:32:38;9.40;99.90
46117;DHT22;32591;48.102;11.772;2023-03-23T04:35:08;9.40;99.90
46117;DHT22;32591;48.102;11.772;2023-03-23T04:37:37;9.40;99.90
46117;DHT22;32591;48.102;11.772;2023-03-23T04:40:07;9.30;99.90
46117;DHT22;32591;48.102;11.772;2023-03-23T04:42:42;9.30;99.90
46117;DHT22;32591;48.102;11.772;2023-03-23T04:45:13;9.40;99.90
46117;DHT22;32591;48.102;11.772;2023-03-23T04:47:42;9.30;99.90
46117;DHT22;32591;48.102;11.772;2023-03-23T04:50:19;9.30;99.90
46117;DHT22;32591;48.102;11.772;2023-03-23T04:52:49;9.30;99.90
46117;DHT22;32591;48.102;11.772;2023-03-23T04:55:18;9.20;99.90
46117;DHT22;32591;48.102;11.772;2023-03-23T04:57:47;9.30;99.90
46117;DHT22;32591;48.102;11.772;2023-03-23T05:00:15;9.30;99.90
46117;DHT22;32591;48.102;11.772;2023-03-23T05:02:44;9.30;99.90
46117;DHT22;32591;48.102;11.772;2023-03-23T05:05:13;9.30;99.90
46117;DHT22;32591;48.102;11.772;2023-03-23T05:07:42;9.30;99.90
46117;DHT22;32591;48.102;11.772;2023-03-23T05:10:11;9.30;99.90
46117;DHT22;32591;48.102;11.772;2023-03-23T05:12:39;9.30;99.90
46117;DHT22;32591;48.102;11.772;2023-03-23T05:15:09;9.40;99.90
46117;DHT22;32591;48.102;11.772;2023-03-23T05:17:37;9.40;99.90
46117;DHT22;32591;48.102;11.772;2023-03-23T05:20:07;9.40;99.90
46117;DHT22;32591;48.102;11.772;2023-03-23T05:22:37;9.40;99.90
46117;DHT22;32591;48.102;11.772;2023-03-23T05:25:05;9.40;99.90
46117;DHT22;32591;48.102;11.772;2023-03-23T05:27:38;9.40;99.90
46117;DHT22;32591;48.102;11.772;2023-03-23T05:30:09;9.40;99.90
46117;DHT22;32591;48.102;11.772;2023-03-23T05:32:37;9.50;99.90
46117;DHT22;32591;48.102;11.772;2023-03-23T05:35:04;9.50;99.90
46117;DHT22;32591;48.102;11.772;2023-03-23T05:37:31;9.50;99.90
46117;DHT22;32591;48.102;11.772;2023-03-23T05:39:59;9.60;99.90
46117;DHT22;32591;48.102;11.772;2023-03-23T05:42:31;9.60;99.90
46117;DHT22;32591;48.102;11.772;2023-03-23T05:44:59;9.60;99.90
46117;DHT22;32591;48.102;11.772;2023-03-23T05:47:28;9.60;99.90
46117;DHT22;32591;48.102;11.772;2023-03-23T05:49:56;9.70;99.90
46117;DHT22;32591;48.102;11.772;2023-03-23T05:52:23;9.70;99.90
46117;DHT22;32591;48.102;11.772;2023-03-23T05:54:50;9.70;99.90
46117;DHT22;32591;48.102;11.772;2023-03-23T05:57:18;9.70;99.90
46117;DHT22;32591;48.102;11.772;2023-03-23T05:59:47;9.70;99.90
46117;DHT22;32591;48.102;11.772;2023-03-23T06:02:14;9.70;99.90
46117;DHT22;32591;48.102;11.772;2023-03-23T06:04:43;9.80;99.90
46117;DHT22;32591;48.102;11.772;2023-03-23T06:07:10;9.80;99.90
46117;DHT22;32591;48.102;11.772;2023-03-23T06:09:39;9.90;99.90
46117;DHT22;32591;48.102;11.772;2023-03-23T06:12:07;9.90;99.90
46117;DHT22;32591;48.102;11.772;2023-03-23T06:14:35;10.00;99.90
46117;DHT22;32591;48.102;11.772;2023-03-23T06:17:02;9.90;99.90
46117;DHT22;32591;48.102;11.772;2023-03-23T06:19:29;10.00;99.90
46117;DHT22;32591;48.102;11.772;2023-03-23T06:21:57;10.00;99.90
46117;DHT22;32591;48.102;11.772;2023-03-23T06:24:24;10.10;99.90
46117;DHT22;32591;48.102;11.772;2023-03-23T06:26:51;10.00;99.90
46117;DHT22;32591;48.102;11.772;2023-03-23T06:29:18;10.00;99.90
46117;DHT22;32591;48.102;11.772;2023-03-23T06:31:48;10.10;99.90
46117;DHT22;32591;48.102;11.772;2023-03-23T06:34:18;10.20;99.90
46117;DHT22;32591;48.102;11.772;2023-03-23T06:36:45;10.20;99.90
46117;DHT22;32591;48.102;11.772;2023-03-23T06:39:13;10.20;99.90
46117;DHT22;32591;48.102;11.772;2023-03-23T06:41:41;10.30;99.90
46117;DHT22;32591;48.102;11.772;2023-03-23T06:44:08;10.20;99.90
46117;DHT22;32591;48.102;11.772;2023-03-23T06:46:39;10.20;99.90
46117;DHT22;32591;48.102;11.772;2023-03-23T06:49:07;10.30;99.90
46117;DHT22;32591;48.102;11.772;2023-03-23T06:51:34;10.20;99.90
46117;DHT22;32591;48.102;11.772;2023-03-23T06:54:02;10.20;99.90
46117;DHT22;32591;48.102;11.772;2023-03-23T06:56:30;10.30;99.90
46117;DHT22;32591;48.102;11.772;2023-03-23T06:58:57;10.40;99.90
46117;DHT22;32591;48.102;11.772;2023-03-23T07:01:24;10.50;99.90
46117;DHT22;32591;48.102;11.772;2023-03-23T07:03:53;10.60;99.90
46117;DHT22;32591;48.102;11.772;2023-03-23T07:06:22;10.70;99.90
46117;DHT22;32591;48.102;11.772;2023-03-23T07:08:49;10.80;99.90
46117;DHT22;32591;48.102;11.772;2023-03-23T07:11:16;10.90;99.90
46117;DHT22;32591;48.102;11.772;2023-03-23T07:13:44;11.20;99.90
46117;DHT22;32591;48.102;11.772;2023-03-23T07:16:12;11.30;99.90
46117;DHT22;32591;48.102;11.772;2023-03-23T07:18:39;11.20;99.90
46117;DHT22;32591;48.102;11.772;2023-03-23T07:21:06;11.20;99.90
46117;DHT22;32591;48.102;11.772;2023-03-23T07:23:33;11.10;99.90
46117;DHT22;32591;48.102;11.772;2023-03-23T07:26:00;11.10;99.90
46117;DHT22;32591;48.102;11.772;2023-03-23T07:28:29;11.00;99.90
46117;DHT22;32591;48.102;11.772;2023-03-23T07:30:57;11.00;99.90
46117;DHT22;32591;48.102;11.772;2023-03-23T07:33:25;11.00;99.90
46117;DHT22;32591;48.102;11.772;2023-03-23T07:35:52;11.10;99.90
46117;DHT22;32591;48.102;11.772;2023-03-23T07:38:19;11.30;99.90
46117;DHT22;32591;48.102;11.772;2023-03-23T07:40:46;11.40;99.90
46117;DHT22;32591;48.102;11.772;2023-03-23T07:43:13;11.50;99.90
46117;DHT22;32591;48.102;11.772;2023-03-23T07:45:40;11.60;99.90
46117;DHT22;32591;48.102;11.772;2023-03-23T07:48:08;11.70;99.90
46117;DHT22;32591;48.102;11.772;2023-03-23T07:50:35;11.90;99.90
46117;DHT22;32591;48.102;11.772;2023-03-23T07:53:03;12.00;99.90
46117;DHT22;32591;48.102;11.772;2023-03-23T07:55:30;12.00;99.90
46117;DHT22;32591;48.102;11.772;2023-03-23T07:57:58;12.10;99.90
46117;DHT22;32591;48.102;11.772;2023-03-23T08:00:25;12.10;99.90
46117;DHT22;32591;48.102;11.772;2023-03-23T08:02:54;12.30;99.90
46117;DHT22;32591;48.102;11.772;2023-03-23T08:05:23;12.40;99.90
46117;DHT22;32591;48.102;11.772;2023-03-23T08:07:52;12.60;99.90
46117;DHT22;32591;48.102;11.772;2023-03-23T08:10:21;12.70;99.90
46117;DHT22;32591;48.102;11.772;2023-03-23T08:12:51;12.70;99.90
46117;DHT22;32591;48.102;11.772;2023-03-23T08:15:19;12.90;99.90
46117;DHT22;32591;48.102;11.772;2023-03-23T08:17:48;13.10;99.90
46117;DHT22;32591;48.102;11.772;2023-03-23T08:20:17;13.30;99.90
46117;DHT22;32591;48.102;11.772;2023-03-23T08:22:49;13.50;99.90
46117;DHT22;32591;48.102;11.772;2023-03-23T08:25:19;13.70;99.90
46117;DHT22;32591;48.102;11.772;2023-03-23T08:27:46;13.90;99.90
46117;DHT22;32591;48.102;11.772;2023-03-23T08:30:15;14.00;99.90
46117;DHT22;32591;48.102;11.772;2023-03-23T08:32:45;14.10;99.90
46117;DHT22;32591;48.102;11.772;2023-03-23T08:35:14;14.30;99.90
46117;DHT22;32591;48.102;11.772;2023-03-23T08:37:42;14.30;99.90
46117;DHT22;32591;48.102;11.772;2023-03-23T08:40:13;14.40;99.90
46117;DHT22;32591;48.102;11.772;2023-03-23T08:42:41;14.50;99.90
46117;DHT22;32591;48.102;11.772;2023-03-23T08:45:11;14.50;99.90
46117;DHT22;32591;48.102;11.772;2023-03-23T08:47:41;14.50;99.90
46117;DHT22;32591;48.102;11.772;2023-03-23T08:50:11;14.60;99.90
46117;DHT22;32591;48.102;11.772;2023-03-23T08:52:39;14.60;99.90
46117;DHT22;32591;48.102;11.772;2023-03-23T08:55:07;14.60;99.90
46117;DHT22;32591;48.102;11.772;2023-03-23T08:57:37;14.80;99.90
46117;DHT22;32591;48.102;11.772;2023-03-23T09:00:05;14.80;99.90
46117;DHT22;32591;48.102;11.772;2023-03-23T09:02:39;14.90;99.90
46117;DHT22;32591;48.102;11.772;2023-03-23T09:05:08;15.10;99.90
46117;DHT22;32591;48.102;11.772;2023-03-23T09:07:37;15.20;99.90
46117;DHT22;32591;48.102;11.772;2023-03-23T09:10:05;15.30;99.90
46117;DHT22;32591;48.102;11.772;2023-03-23T09:12:35;15.30;99.90
46117;DHT22;32591;48.102;11.772;2023-03-23T09:15:03;15.30;99.90
46117;DHT22;32591;48.102;11.772;2023-03-23T09:17:34;15.30;99.60
46117;DHT22;32591;48.102;11.772;2023-03-23T09:20:02;15.40;99.50
46117;DHT22;32591;48.102;11.772;2023-03-23T09:22:32;15.40;99.90
46117;DHT22;32591;48.102;11.772;2023-03-23T09:24:59;15.50;99.90
46117;DHT22;32591;48.102;11.772;2023-03-23T09:27:27;15.50;99.70
46117;DHT22;32591;48.102;11.772;2023-03-23T09:29:55;15.50;99.40
46117;DHT22;32591;48.102;11.772;2023-03-23T09:32:22;15.60;99.30
46117;DHT22;32591;48.102;11.772;2023-03-23T09:34:49;15.70;98.50
46117;DHT22;32591;48.102;11.772;2023-03-23T09:37:17;15.90;97.90
46117;DHT22;32591;48.102;11.772;2023-03-23T09:39:43;15.90;97.60
46117;DHT22;32591;48.102;11.772;2023-03-23T09:42:28;16.00;97.10
46117;DHT22;32591;48.102;11.772;2023-03-23T09:45:12;16.10;97.00
46117;DHT22;32591;48.102;11.772;2023-03-23T09:47:49;16.00;95.10
46117;DHT22;32591;48.102;11.772;2023-03-23T09:50:27;15.90;94.40
46117;DHT22;32591;48.102;11.772;2023-03-23T09:52:59;15.90;94.40
46117;DHT22;32591;48.102;11.772;2023-03-23T09:55:28;16.00;93.90
46117;DHT22;32591;48.102;11.772;2023-03-23T09:57:58;16.10;93.80
46117;DHT22;32591;48.102;11.772;2023-03-23T10:00:33;16.30;93.50
46117;DHT22;32591;48.102;11.772;2023-03-23T10:03:05;16.20;92.20
46117;DHT22;32591;48.102;11.772;2023-03-23T10:05:35;16.30;92.30
46117;DHT22;32591;48.102;11.772;2023-03-23T10:08:11;16.40;92.50
46117;DHT22;32591;48.102;11.772;2023-03-23T10:10:47;16.50;92.20
46117;DHT22;32591;48.102;11.772;2023-03-23T10:13:27;16.70;91.60
46117;DHT22;32591;48.102;11.772;2023-03-23T10:16:15;16.90;92.20
46117;DHT22;32591;48.102;11.772;2023-03-23T10:18:49;17.00;92.40
46117;DHT22;32591;48.102;11.772;2023-03-23T10:21:22;17.10;91.40
46117;DHT22;32591;48.102;11.772;2023-03-23T10:23:54;17.20;90.30
46117;DHT22;32591;48.102;11.772;2023-03-23T10:26:32;17.30;89.20
46117;DHT22;32591;48.102;11.772;2023-03-23T10:29:11;17.40;88.80
46117;DHT22;32591;48.102;11.772;2023-03-23T10:31:44;17.40;89.50
46117;DHT22;32591;48.102;11.772;2023-03-23T10:34:17;17.40;88.10
46117;DHT22;32591;48.102;11.772;2023-03-23T10:36:59;17.40;84.80
46117;DHT22;32591;48.102;11.772;2023-03-23T10:39:33;17.40;83.50
46117;DHT22;32591;48.102;11.772;2023-03-23T10:42:05;17.30;83.10
46117;DHT22;32591;48.102;11.772;2023-03-23T10:44:33;17.20;82.90
46117;DHT22;32591;48.102;11.772;2023-03-23T10:47:04;17.20;83.30
46117;DHT22;32591;48.102;11.772;2023-03-23T10:49:36;17.10;82.10
46117;DHT22;32591;48.102;11.772;2023-03-23T10:52:12;17.00;83.10
46117;DHT22;32591;48.102;11.772;2023-03-23T10:54:51;17.00;81.20
46117;DHT22;32591;48.102;11.772;2023-03-23T10:57:23;17.00;82.00
46117;DHT22;32591;48.102;11.772;2023-03-23T10:59:59;17.00;82.80
46117;DHT22;32591;48.102;11.772;2023-03-23T11:02:37;16.90;82.30
46117;DHT22;32591;48.102;11.772;2023-03-23T11:05:19;16.90;83.10
46117;DHT22;32591;48.102;11.772;2023-03-23T11:07:50;16.90;84.00
46117;DHT22;32591;48.102;11.772;2023-03-23T11:10:22;16.90;83.30
46117;DHT22;32591;48.102;11.772;2023-03-23T11:12:51;16.80;83.40
46117;DHT22;32591;48.102;11.772;2023-03-23T11:15:28;16.80;83.00
46117;DHT22;32591;48.102;11.772;2023-03-23T11:18:00;16.80;83.90
46117;DHT22;32591;48.102;11.772;2023-03-23T11:20:32;16.90;84.90
46117;DHT22;32591;48.102;11.772;2023-03-23T11:23:14;17.00;84.20
46117;DHT22;32591;48.102;11.772;2023-03-23T11:25:57;17.00;84.80
46117;DHT22;32591;48.102;11.772;2023-03-23T11:28:31;17.10;85.00
46117;DHT22;32591;48.102;11.772;2023-03-23T11:31:02;17.10;84.50
46117;DHT22;32591;48.102;11.772;2023-03-23T11:33:36;17.10;85.50
46117;DHT22;32591;48.102;11.772;2023-03-23T11:36:07;17.10;83.50
46117;DHT22;32591;48.102;11.772;2023-03-23T11:38:35;17.20;83.90
46117;DHT22;32591;48.102;11.772;2023-03-23T11:41:09;17.30;82.10
46117;DHT22;32591;48.102;11.772;2023-03-23T11:43:40;17.30;82.80
46117;DHT22;32591;48.102;11.772;2023-03-23T11:46:18;17.40;81.30
46117;DHT22;32591;48.102;11.772;2023-03-23T11:48:57;17.50;81.80
46117;DHT22;32591;48.102;11.772;2023-03-23T11:51:32;17.60;81.00
46117;DHT22;32591;48.102;11.772;2023-03-23T11:54:15;17.60;81.10
46117;DHT22;32591;48.102;11.772;2023-03-23T11:56:46;17.70;78.60
46117;DHT22;32591;48.102;11.772;2023-03-23T11:59:16;17.80;77.30
46117;DHT22;32591;48.102;11.772;2023-03-23T12:01:53;18.00;76.70
46117;DHT22;32591;48.102;11.772;2023-03-23T12:04:40;18.10;77.10
46117;DHT22;32591;48.102;11.772;2023-03-23T12:10:27;18.40;75.50
46117;DHT22;32591;48.102;11.772;2023-03-23T12:13:12;18.30;75.90
46117;DHT22;32591;48.102;11.772;2023-03-23T12:15:51;18.30;74.40
46117;DHT22;32591;48.102;11.772;2023-03-23T12:18:40;18.40;73.50
46117;DHT22;32591;48.102;11.772;2023-03-23T12:21:33;18.50;73.10
46117;DHT22;32591;48.102;11.772;2023-03-23T12:24:14;18.50;72.70
46117;DHT22;32591;48.102;11.772;2023-03-23T12:26:49;18.40;70.80
46117;DHT22;32591;48.102;11.772;2023-03-23T12:29:33;18.40;71.30
46117;DHT22;32591;48.102;11.772;2023-03-23T12:32:31;18.40;70.40
46117;DHT22;32591;48.102;11.772;2023-03-23T12:35:14;18.40;71.40
46117;DHT22;32591;48.102;11.772;2023-03-23T12:37:59;18.40;69.80
46117;DHT22;32591;48.102;11.772;2023-03-23T12:40:51;18.40;69.70
46117;DHT22;32591;48.102;11.772;2023-03-23T12:43:29;18.40;70.40
46117;DHT22;32591;48.102;11.772;2023-03-23T12:46:25;18.50;70.10
46117;DHT22;32591;48.102;11.772;2023-03-23T12:49:06;18.50;68.70
46117;DHT22;32591;48.102;11.772;2023-03-23T12:51:40;18.50;68.10
46117;DHT22;32591;48.102;11.772;2023-03-23T12:54:15;18.60;68.40
46117;DHT22;32591;48.102;11.772;2023-03-23T12:56:53;18.50;66.70
46117;DHT22;32591;48.102;11.772;2023-03-23T12:59:28;18.60;66.10
46117;DHT22;32591;48.102;11.772;2023-03-23T13:02:06;18.70;66.70
46117;DHT22;32591;48.102;11.772;2023-03-23T13:04:42;18.80;65.90
46117;DHT22;32591;48.102;11.772;2023-03-23T13:07:16;18.90;66.20
46117;DHT22;32591;48.102;11.772;2023-03-23T13:09:54;19.00;64.90
46117;DHT22;32591;48.102;11.772;2023-03-23T13:12:25;18.90;65.40
46117;DHT22;32591;48.102;11.772;2023-03-23T13:15:00;18.90;65.20
46117;DHT22;32591;48.102;11.772;2023-03-23T13:17:38;19.00;64.40
46117;DHT22;32591;48.102;11.772;2023-03-23T13:23:12;18.70;64.00
46117;DHT22;32591;48.102;11.772;2023-03-23T13:25:54;18.60;61.80
46117;DHT22;32591;48.102;11.772;2023-03-23T13:28:25;18.50;62.70
46117;DHT22;32591;48.102;11.772;2023-03-23T13:30:56;18.60;63.40
46117;DHT22;32591;48.102;11.772;2023-03-23T13:33:28;18.50;62.10
46117;DHT22;32591;48.102;11.772;2023-03-23T13:35:56;18.40;62.90
46117;DHT22;32591;48.102;11.772;2023-03-23T13:38:25;18.50;62.50
46117;DHT22;32591;48.102;11.772;2023-03-23T13:40:55;18.50;61.90
46117;DHT22;32591;48.102;11.772;2023-03-23T13:43:28;18.40;61.60
46117;DHT22;32591;48.102;11.772;2023-03-23T13:46:11;18.40;62.50
46117;DHT22;32591;48.102;11.772;2023-03-23T13:48:44;18.40;60.20
46117;DHT22;32591;48.102;11.772;2023-03-23T13:51:34;18.40;60.80
46117;DHT22;32591;48.102;11.772;2023-03-23T13:54:14;18.50;60.60
46117;DHT22;32591;48.102;11.772;2023-03-23T13:56:55;18.40;61.10
46117;DHT22;32591;48.102;11.772;2023-03-23T13:59:32;18.40;61.60
46117;DHT22;32591;48.102;11.772;2023-03-23T14:02:33;18.40;61.50
46117;DHT22;32591;48.102;11.772;2023-03-23T14:05:33;18.40;61.80
46117;DHT22;32591;48.102;11.772;2023-03-23T14:08:14;18.40;61.60
46117;DHT22;32591;48.102;11.772;2023-03-23T14:10:51;18.50;62.40
46117;DHT22;32591;48.102;11.772;2023-03-23T14:13:25;18.70;62.20
46117;DHT22;32591;48.102;11.772;2023-03-23T14:15:58;18.70;62.70
46117;DHT22;32591;48.102;11.772;2023-03-23T14:18:31;18.70;62.30
46117;DHT22;32591;48.102;11.772;2023-03-23T14:21:02;18.60;62.40
46117;DHT22;32591;48.102;11.772;2023-03-23T14:23:32;18.60;63.30
46117;DHT22;32591;48.102;11.772;2023-03-23T14:26:01;18.50;63.00
46117;DHT22;32591;48.102;11.772;2023-03-23T14:28:38;18.50;64.40
46117;DHT22;32591;48.102;11.772;2023-03-23T14:31:14;18.50;64.50
46117;DHT22;32591;48.102;11.772;2023-03-23T14:33:44;18.60;64.70
46117;DHT22;32591;48.102;11.772;2023-03-23T14:36:11;18.50;65.30
46117;DHT22;32591;48.102;11.772;2023-03-23T14:38:38;18.40;65.90
46117;DHT22;32591;48.102;11.772;2023-03-23T14:41:06;18.40;66.10
46117;DHT22;32591;48.102;11.772;2023-03-23T14:43:36;18.20;66.40
46117;DHT22;32591;48.102;11.772;2023-03-23T14:46:07;18.00;67.40
46117;DHT22;32591;48.102;11.772;2023-03-23T14:48:35;18.00;67.30
46117;DHT22;32591;48.102;11.772;2023-03-23T14:51:04;18.10;67.60
46117;DHT22;32591;48.102;11.772;2023-03-23T14:53:35;18.20;69.20
46117;DHT22;32591;48.102;11.772;2023-03-23T14:56:09;18.20;68.20
46117;DHT22;32591;48.102;11.772;2023-03-23T14:58:43;18.30;68.10
46117;DHT22;32591;48.102;11.772;2023-03-23T15:01:14;18.20;67.70
46117;DHT22;32591;48.102;11.772;2023-03-23T15:03:49;18.10;67.00
46117;DHT22;32591;48.102;11.772;2023-03-23T15:06:21;18.10;67.50
46117;DHT22;32591;48.102;11.772;2023-03-23T15:08:52;18.10;67.50
46117;DHT22;32591;48.102;11.772;2023-03-23T15:11:25;18.00;67.00
46117;DHT22;32591;48.102;11.772;2023-03-23T15:13:57;18.00;67.30
46117;DHT22;32591;48.102;11.772;2023-03-23T15:16:30;17.90;67.20
46117;DHT22;32591;48.102;11.772;2023-03-23T15:18:59;17.90;66.80
46117;DHT22;32591;48.102;11.772;2023-03-23T15:21:29;17.80;68.10
46117;DHT22;32591;48.102;11.772;2023-03-23T15:23:57;17.80;67.80
46117;DHT22;32591;48.102;11.772;2023-03-23T15:26:30;17.70;68.80
46117;DHT22;32591;48.102;11.772;2023-03-23T15:29:11;17.70;69.00
46117;DHT22;32591;48.102;11.772;2023-03-23T15:31:42;17.60;68.60
46117;DHT22;32591;48.102;11.772;2023-03-23T15:34:16;17.60;69.00
46117;DHT22;32591;48.102;11.772;2023-03-23T15:36:51;17.50;69.00
46117;DHT22;32591;48.102;11.772;2023-03-23T15:39:21;17.50;69.70
46117;DHT22;32591;48.102;11.772;2023-03-23T15:41:49;17.50;69.40
46117;DHT22;32591;48.102;11.772;2023-03-23T15:44:24;17.50;69.50
46117;DHT22;32591;48.102;11.772;2023-03-23T15:47:01;17.50;69.60
46117;DHT22;32591;48.102;11.772;2023-03-23T15:49:30;17.40;69.50
46117;DHT22;32591;48.102;11.772;2023-03-23T15:51:57;17.30;70.40
46117;DHT22;32591;48.102;11.772;2023-03-23T15:54:24;17.20;71.00
46117;DHT22;32591;48.102;11.772;2023-03-23T15:56:56;17.20;71.40
46117;DHT22;32591;48.102;11.772;2023-03-23T15:59:24;17.20;72.00